Date,TemperatureHighF,TemperatureAvgF,TemperatureLowF,DewpointHighF,DewpointAvgF,DewpointLowF,HumidityHigh,HumidityAvg,HumidityLow,PressureMaxIn,PressureMinIn,WindSpeedMaxMPH,WindSpeedAvgMPH,GustSpeedMaxMPH,PrecipitationSumIn
2013-6-1,86.7,73.5,61.4,69.6,65.1,60.2,97,78,49,29.99,29.80,18,1,18,0.00
2013-6-2,79.0,71.2,61.8,68.1,64.2,60.1,97,80,56,29.82,29.75,15,1,15,0.00
2013-6-3,65.7,61.3,49.0,62.3,58.1,47.3,98,90,73,30.02,29.81,9,0,9,0.00
2013-6-4,70.3,55.3,38.1,55.4,46.5,36.5,97,76,46,30.15,30.02,12,0,12,0.00
2013-6-5,79.3,62.9,42.5,62.8,53.4,41.4,97,74,52,30.13,29.91,21,2,21,0.00
2013-6-6,69.1,64.8,61.4,60.9,59.9,58.9,97,85,71,29.92,29.74,29,3,29,0.01
2013-6-7,67.0,63.5,60.5,65.2,62.4,59.3,98,96,93,29.78,29.68,6,0,6,0.00
2013-6-8,70.4,60.5,53.9,61.5,56.6,52.8,97,88,66,30.09,29.78,5,0,8,0.00
2013-6-9,80.8,67.3,52.6,66.8,60.3,51.8,98,80,56,30.15,29.99,20,2,20,0.00
2013-6-10,79.2,69.3,60.0,70.2,64.9,58.9,97,86,71,30.00,29.72,17,2,17,0.00
2013-6-11,75.5,67.5,63.2,67.6,63.8,61.3,96,88,70,29.85,29.74,12,1,12,0.00
2013-6-12,82.0,71.0,61.8,71.3,66.2,60.9,99,86,60,29.87,29.71,11,0,11,0.00
2013-6-13,74.2,66.8,61.3,68.1,63.2,55.6,98,89,77,29.72,29.47,25,1,25,0.00
2013-6-14,72.6,63.6,56.5,61.5,56.9,54.3,95,80,59,30.01,29.72,12,0,12,0.00
2013-6-15,75.9,62.7,48.5,60.3,53.6,47.7,98,76,39,30.10,29.98,13,1,13,0.00
2013-6-16,73.5,65.7,58.7,68.0,62.3,56.3,97,89,77,30.01,29.87,14,1,14,0.00
2013-6-17,80.5,71.1,62.0,69.3,65.1,60.8,96,83,54,29.93,29.84,11,0,11,0.00
2013-6-18,76.1,65.9,58.6,70.2,63.2,57.8,98,91,75,29.89,29.78,9,0,9,0.00
2013-6-19,76.4,65.6,54.1,61.7,56.3,50.3,97,75,42,30.11,29.89,13,1,13,0.00
2013-6-20,81.8,64.9,48.1,65.3,56.5,47.1,100,78,45,30.19,30.11,9,0,9,0.00
2013-6-21,84.4,68.5,50.4,67.5,59.3,49.6,98,76,44,30.23,30.12,10,0,10,0.00
2013-6-22,86.2,72.0,57.0,72.8,64.8,55.6,97,81,51,30.16,30.02,10,0,10,0.00
2013-6-23,86.7,72.8,58.9,72.5,66.0,58.1,98,81,50,30.13,30.00,9,0,9,0.00
2013-6-24,86.2,73.4,60.2,72.7,66.2,59.3,98,81,52,30.10,29.96,16,1,16,0.00
2013-6-25,86.7,73.7,62.7,71.2,66.2,61.6,98,80,55,30.04,29.83,25,1,25,0.00
2013-6-26,79.0,70.8,62.7,71.9,67.2,61.6,98,89,74,29.97,29.79,12,1,12,0.00
2013-6-27,75.3,68.0,62.8,70.7,66.3,62.0,99,94,85,29.79,29.60,12,0,12,0.00
2013-6-28,75.8,66.9,58.9,70.7,64.2,58.1,97,91,75,29.61,29.47,14,0,14,0.00
2013-6-29,76.8,66.1,58.6,67.5,62.3,57.8,98,88,65,29.58,29.51,11,1,11,0.00